Terminal Aerodrome Forecast
Issued by NWS

Home | Current Version | Previous Version | Text Only | Print | Product List | Glossary On
Versions: 1 2 3 4 5 6 7 8 9 10 11 12 13
000
FTUS44 KLZK 281720
TAFBPK
TAF
KBPK 281720Z 2818/2918 18008KT P6SM FEW050 BKN250
     FM282200 16009KT P6SM VCSH SCT050 BKN250
      TEMPO 2822/2901 BKN050
     FM290100 18006KT P6SM VCSH BKN040 OVC250
      TEMPO 2903/2906 5SM -SHRA
     FM290600 17004KT 6SM -SHRA BKN040 OVC100
     FM291400 18004KT 3SM -SHRA BKN040 OVC100=

USA.gov is the U.S. government's official web portal to all federal, state and local government web resources and services.